createdAt,value
2018-01-01T00:00:22.650Z,56.40
2018-01-01T00:05:51.137Z,42.67
2018-01-01T00:11:21.640Z,27.70
2018-01-01T00:16:50.185Z,16.90
2018-01-01T00:22:18.663Z,13.70
2018-01-01T00:27:48.094Z,12.20
2018-01-01T00:33:16.527Z,10.33
2018-01-01T00:38:45.723Z,10.40
2018-01-01T00:44:14.150Z,11.53
2018-01-01T00:49:42.573Z,10.43
2018-01-01T00:55:10.997Z,11.47
2018-01-01T01:00:39.427Z,8.80
2018-01-01T01:06:07.836Z,7.93
2018-01-01T01:11:36.276Z,8.50
2018-01-01T01:17:04.735Z,7.80
2018-01-01T01:22:33.169Z,9.20
2018-01-01T01:28:14.642Z,7.43
2018-01-01T01:33:43.062Z,8.37
2018-01-01T01:39:15.491Z,7.80
2018-01-01T01:44:43.933Z,8.80
2018-01-01T01:50:12.351Z,7.57
2018-01-01T01:55:41.758Z,8.20
2018-01-01T02:01:10.217Z,7.03
2018-01-01T02:06:38.623Z,7.77
2018-01-01T02:12:07.799Z,8.10
2018-01-01T02:17:36.259Z,8.33
2018-01-01T02:23:05.612Z,10.73
2018-01-01T02:28:34.031Z,11.83
2018-01-01T02:34:02.468Z,11.60
2018-01-01T02:39:30.873Z,12.83
2018-01-01T02:44:59.274Z,12.07
2018-01-01T02:50:27.699Z,12.80
2018-01-01T02:55:57.172Z,12.10
2018-01-01T03:01:25.577Z,13.43
2018-01-01T03:06:53.976Z,13.97
2018-01-01T03:12:23.212Z,15.50
2018-01-01T03:17:52.403Z,14.70
2018-01-01T03:23:22.852Z,13.77
2018-01-01T03:28:51.309Z,13.30
2018-01-01T03:34:19.778Z,8.17
2018-01-01T03:39:49.042Z,6.00
2018-01-01T03:45:18.207Z,3.90
2018-01-01T03:50:46.625Z,4.40
2018-01-01T03:56:15.029Z,4.43
2018-01-01T04:01:44.234Z,4.00
2018-01-01T04:07:12.695Z,4.43
2018-01-01T04:12:41.872Z,4.40
2018-01-01T04:18:10.295Z,3.87
2018-01-01T04:23:45.185Z,3.80
2018-01-01T04:29:13.598Z,3.37
2018-01-01T04:34:47.268Z,3.20
2018-01-01T04:40:17.028Z,3.33
2018-01-01T04:45:45.236Z,3.20
2018-01-01T04:51:13.441Z,2.30
2018-01-01T04:56:42.400Z,1.87
2018-01-01T05:02:10.599Z,1.07
2018-01-01T05:07:38.816Z,1.07
2018-01-01T05:13:07.014Z,1.67
2018-01-01T05:18:35.975Z,1.07
2018-01-01T05:24:04.159Z,0.80
2018-01-01T05:29:32.580Z,1.13
2018-01-01T05:35:00.791Z,0.60
2018-01-01T05:40:29.043Z,0.67
2018-01-01T05:45:57.245Z,1.10
2018-01-01T05:51:25.429Z,0.60
2018-01-01T05:56:53.638Z,0.70
2018-01-01T06:02:21.837Z,0.60
2018-01-01T06:07:54.815Z,0.50
2018-01-01T06:13:22.997Z,0.60
2018-01-01T06:18:55.251Z,0.70
2018-01-01T06:24:23.441Z,0.70
2018-01-01T06:29:51.668Z,0.70
2018-01-01T06:35:19.910Z,0.60
2018-01-01T06:40:48.138Z,0.60
2018-01-01T06:46:16.345Z,0.60
2018-01-01T06:51:46.510Z,0.60
2018-01-01T06:57:14.714Z,0.53
2018-01-01T07:02:42.922Z,0.70
2018-01-01T07:08:11.121Z,0.50
2018-01-01T07:13:39.328Z,0.60
2018-01-01T07:19:07.520Z,0.70
2018-01-01T07:24:35.710Z,0.90
2018-01-01T07:30:03.916Z,0.93
2018-01-01T07:35:32.891Z,0.80
2018-01-01T07:41:01.081Z,0.80
2018-01-01T07:46:30.025Z,0.97
2018-01-01T07:51:58.236Z,0.50
2018-01-01T07:57:27.231Z,1.03
2018-01-01T08:02:55.473Z,1.20
2018-01-01T08:08:23.639Z,0.80
2018-01-01T08:13:52.589Z,1.10
2018-01-01T08:19:20.825Z,0.83
2018-01-01T08:24:49.053Z,0.80
2018-01-01T08:30:17.226Z,0.80
2018-01-01T08:35:49.566Z,0.80
2018-01-01T08:41:23.442Z,0.70
2018-01-01T08:46:53.620Z,0.60
2018-01-01T08:52:21.810Z,0.77
2018-01-01T08:57:50.079Z,1.00
2018-01-01T09:03:18.302Z,0.87
2018-01-01T09:08:46.523Z,0.60
2018-01-01T09:14:14.729Z,0.60
2018-01-01T09:19:42.968Z,0.60
2018-01-01T09:25:11.210Z,1.13
2018-01-01T09:30:43.587Z,0.70
2018-01-01T09:36:11.788Z,1.30
2018-01-01T09:41:39.984Z,1.00
2018-01-01T09:47:08.203Z,0.90
2018-01-01T09:52:36.465Z,0.83
2018-01-01T09:58:04.668Z,1.00
2018-01-01T10:03:34.624Z,2.43
2018-01-01T10:09:04.957Z,1.00
2018-01-01T10:14:33.913Z,0.97
2018-01-01T10:20:03.074Z,1.17
2018-01-01T10:25:31.534Z,1.07
2018-01-01T10:31:06.565Z,0.97
2018-01-01T10:36:34.766Z,0.70
2018-01-01T10:42:10.760Z,1.47
2018-01-01T10:47:50.715Z,0.93
2018-01-01T10:53:30.692Z,0.97
2018-01-01T10:59:10.482Z,0.80
2018-01-01T11:04:39.113Z,0.63
2018-01-01T11:10:07.324Z,0.80
2018-01-01T11:15:39.607Z,0.90
2018-01-01T11:21:07.807Z,0.80
2018-01-01T11:26:36.066Z,0.87
2018-01-01T11:32:05.064Z,0.90
2018-01-01T11:37:33.259Z,1.00
2018-01-01T11:43:01.519Z,1.07
2018-01-01T11:48:31.671Z,0.97
2018-01-01T11:54:00.234Z,0.80
2018-01-01T11:59:30.530Z,0.80
2018-01-01T12:04:58.730Z,1.13
2018-01-01T12:10:26.934Z,1.40
2018-01-01T12:15:56.045Z,0.80
2018-01-01T12:27:31.288Z,1.40
2018-01-01T12:33:01.211Z,0.80
2018-01-01T12:38:29.446Z,0.90
2018-01-01T12:43:59.161Z,1.50
2018-01-01T12:49:28.443Z,1.27
2018-01-01T12:54:57.415Z,0.87
2018-01-01T13:06:01.346Z,1.07
2018-01-01T13:11:29.563Z,0.80
2018-01-01T13:17:08.779Z,1.30
2018-01-01T13:22:39.135Z,1.10
2018-01-01T13:28:07.331Z,0.97
2018-01-01T13:33:35.579Z,1.17
2018-01-01T13:39:05.360Z,0.80
2018-01-01T13:44:33.564Z,0.90
2018-01-01T13:50:09.574Z,1.50
2018-01-01T13:55:46.240Z,1.30
2018-01-01T14:01:14.441Z,0.70
2018-01-01T14:06:43.417Z,0.90
2018-01-01T14:12:11.645Z,1.77
2018-01-01T14:17:39.971Z,1.50
2018-01-01T14:23:08.191Z,0.83
2018-01-01T14:28:36.406Z,1.17
2018-01-01T14:34:05.592Z,1.00
2018-01-01T14:39:33.784Z,1.17
2018-01-01T14:45:03.987Z,1.00
2018-01-01T14:50:49.692Z,0.90
2018-01-01T14:56:18.832Z,1.17
2018-01-01T15:01:57.515Z,2.00
2018-01-01T15:07:25.805Z,1.57
2018-01-01T15:12:54.168Z,1.00
2018-01-01T15:18:22.414Z,1.70
2018-01-01T15:23:51.399Z,1.80
2018-01-01T15:29:19.839Z,1.60
2018-01-01T15:34:55.323Z,1.70
2018-01-01T15:40:23.549Z,2.13
2018-01-01T15:45:53.296Z,2.83
2018-01-01T15:51:22.768Z,3.37
2018-01-01T15:56:57.068Z,4.20
2018-01-01T16:02:31.349Z,4.97
2018-01-01T16:08:19.238Z,3.60
2018-01-01T16:13:47.574Z,4.40
2018-01-01T16:19:16.010Z,4.10
2018-01-01T16:24:51.260Z,10.67
2018-01-01T16:30:19.460Z,9.07
2018-01-01T16:35:49.680Z,8.13
2018-01-01T16:41:23.621Z,6.53
2018-01-01T16:46:52.796Z,4.37
2018-01-01T16:52:31.617Z,2.50
2018-01-01T16:57:59.915Z,2.63
2018-01-01T17:03:31.398Z,2.60
2018-01-01T17:09:02.076Z,3.17
2018-01-01T17:14:34.337Z,2.37
2018-01-01T17:20:03.877Z,2.13
2018-01-01T17:25:35.808Z,2.60
2018-01-01T17:31:08.874Z,2.00
2018-01-01T17:36:40.855Z,2.37
2018-01-01T17:42:09.725Z,2.60
2018-01-01T17:47:42.751Z,2.10
2018-01-01T17:53:12.897Z,2.83
2018-01-01T17:58:42.065Z,3.40
2018-01-01T18:04:12.246Z,3.33
2018-01-01T18:09:42.401Z,4.87
2018-01-01T18:15:16.886Z,4.27
2018-01-01T18:20:45.560Z,3.10
2018-01-01T18:26:16.321Z,4.20
2018-01-01T18:31:45.771Z,4.10
2018-01-01T18:37:15.100Z,3.90
2018-01-01T18:42:43.427Z,3.40
2018-01-01T18:48:12.393Z,3.83
2018-01-01T18:53:40.763Z,4.20
2018-01-01T18:59:09.975Z,6.40
2018-01-01T19:04:41.456Z,5.60
2018-01-01T19:10:20.111Z,5.40
2018-01-01T19:21:44.338Z,5.03
2018-01-01T19:27:22.150Z,5.50
2018-01-01T19:33:11.883Z,5.50
2018-01-01T19:44:43.503Z,6.37
2018-01-01T19:50:35.809Z,5.00
2018-01-01T20:14:17.653Z,3.23
2018-01-01T20:25:43.327Z,3.30
2018-01-01T20:31:15.038Z,4.80
2018-01-01T20:36:45.622Z,4.40
2018-01-01T20:42:21.050Z,5.30
2018-01-01T20:47:54.020Z,5.70
2018-01-01T20:53:48.620Z,6.47
2018-01-01T20:59:16.850Z,4.80
2018-01-01T21:04:47.172Z,5.73
2018-01-01T21:10:15.513Z,5.03
2018-01-01T21:15:44.676Z,4.67
2018-01-01T21:21:13.232Z,3.97
2018-01-01T21:26:49.317Z,3.90
2018-01-01T21:32:17.527Z,3.53
2018-01-01T21:37:47.924Z,2.70
2018-01-01T21:43:16.554Z,1.77
2018-01-01T21:48:44.946Z,1.60
2018-01-01T21:54:15.363Z,1.13
2018-01-01T22:00:01.231Z,1.10
2018-01-01T22:05:31.483Z,0.70
2018-01-01T22:11:06.581Z,0.90
2018-01-01T22:16:34.836Z,0.67
2018-01-01T22:22:03.070Z,0.60
2018-01-01T22:27:39.873Z,0.60
2018-01-01T22:33:08.203Z,0.60
2018-01-01T22:38:39.804Z,0.53
2018-01-01T22:44:08.041Z,0.50
2018-01-01T22:49:36.714Z,0.70
2018-01-01T22:55:19.360Z,0.70
2018-01-01T23:00:53.567Z,0.70
2018-01-01T23:06:21.892Z,0.60
2018-01-01T23:11:50.183Z,0.50
2018-01-01T23:17:20.392Z,0.60
2018-01-01T23:22:49.803Z,0.50
2018-01-01T23:28:20.112Z,0.50
2018-01-01T23:33:48.371Z,0.50
2018-01-01T23:39:17.670Z,0.50
2018-01-01T23:44:50.586Z,0.50
2018-01-01T23:50:19.184Z,0.50
2018-01-01T23:55:47.785Z,0.50
